createdAt,value
2018-12-20T00:02:58.359Z,101045.31
2018-12-20T00:06:02.638Z,101046.16
2018-12-20T00:09:08.770Z,101046.16
2018-12-20T00:12:13.113Z,101043.82
2018-12-20T00:15:17.527Z,101039.25
2018-12-20T00:18:21.924Z,101037.91
2018-12-20T00:21:26.132Z,101045.67
2018-12-20T00:24:30.357Z,101037.59
2018-12-20T00:27:34.961Z,101046.34
2018-12-20T00:30:39.332Z,101032.88
2018-12-20T00:33:43.733Z,101034.23
2018-12-20T00:36:48.140Z,101029.34
2018-12-20T00:39:52.371Z,101025.48
2018-12-20T00:42:56.708Z,101032.56
2018-12-20T00:46:01.028Z,101039.30
2018-12-20T00:49:05.456Z,101034.23
2018-12-20T00:52:09.852Z,101033.56
2018-12-20T00:55:14.318Z,101037.47
2018-12-20T00:58:18.547Z,101030.26
2018-12-20T01:01:22.869Z,101032.15
2018-12-20T01:04:27.247Z,101040.09
2018-12-20T01:07:31.599Z,101036.91
2018-12-20T01:10:36.035Z,101030.91
2018-12-20T01:13:40.351Z,101038.00
2018-12-20T01:16:44.699Z,101042.23
2018-12-20T01:19:54.804Z,101044.96
2018-12-20T01:22:59.258Z,101052.73
2018-12-20T01:26:03.735Z,101052.41
2018-12-20T01:29:08.086Z,101050.80
2018-12-20T01:32:12.514Z,101049.63
2018-12-20T01:35:16.787Z,101052.68
2018-12-20T01:38:21.063Z,101054.70
2018-12-20T01:41:25.666Z,101051.87
2018-12-20T01:44:29.954Z,101048.51
2018-12-20T01:47:34.249Z,101051.06
2018-12-20T01:50:38.531Z,101052.41
2018-12-20T01:53:42.843Z,101050.87
2018-12-20T01:56:47.155Z,101057.42
2018-12-20T01:59:51.407Z,101050.52
2018-12-20T02:02:55.775Z,101056.22
2018-12-20T02:06:00.136Z,101051.20
2018-12-20T02:09:07.920Z,101053.84
2018-12-20T02:12:12.432Z,101050.48
2018-12-20T02:15:16.769Z,101048.78
2018-12-20T02:18:21.289Z,101036.50
2018-12-20T02:21:25.602Z,101039.85
2018-12-20T02:24:30.077Z,101037.66
2018-12-20T02:27:34.541Z,101029.41
2018-12-20T02:30:39.365Z,101024.17
2018-12-20T02:33:44.086Z,101022.14
2018-12-20T02:36:48.520Z,101022.46
2018-12-20T02:39:52.897Z,101026.50
2018-12-20T02:42:57.582Z,101030.88
2018-12-20T02:46:02.305Z,101032.55
2018-12-20T02:49:06.962Z,101030.70
2018-12-20T02:52:11.270Z,101031.73
2018-12-20T02:55:15.949Z,101027.52
2018-12-20T02:58:20.516Z,101033.03
2018-12-20T03:01:24.930Z,101030.48
2018-12-20T03:04:29.399Z,101031.14
2018-12-20T03:07:33.849Z,101031.14
2018-12-20T03:10:38.375Z,101027.11
2018-12-20T03:13:42.683Z,101027.11
2018-12-20T03:16:47.102Z,101017.02
2018-12-20T03:19:51.667Z,101019.17
2018-12-20T03:22:56.128Z,101015.98
2018-12-20T03:26:00.500Z,101014.45
2018-12-20T03:29:05.191Z,101015.30
2018-12-20T03:32:09.665Z,101019.84
2018-12-20T03:35:14.284Z,101018.67
2018-12-20T03:38:18.807Z,101014.81
2018-12-20T03:41:23.121Z,101007.11
2018-12-20T03:44:27.410Z,101009.13
2018-12-20T03:47:31.943Z,101013.53
2018-12-20T03:50:36.244Z,101019.09
2018-12-20T03:53:40.495Z,101017.75
2018-12-20T03:56:45.063Z,101025.82
2018-12-20T03:59:49.327Z,101026.48
2018-12-20T04:02:53.665Z,101021.42
2018-12-20T04:05:58.226Z,101011.19
2018-12-20T04:09:02.723Z,101004.64
2018-12-20T04:12:07.057Z,101005.16
2018-12-20T04:15:11.504Z,101016.77
2018-12-20T04:18:15.734Z,101005.16
2018-12-20T04:21:20.315Z,101007.92
2018-12-20T04:24:25.568Z,101001.74
2018-12-20T04:27:29.946Z,101009.33
2018-12-20T04:30:34.282Z,101009.82
2018-12-20T04:33:39.108Z,101008.34
2018-12-20T04:36:43.400Z,101007.48
2018-12-20T04:39:47.765Z,101013.72
2018-12-20T04:42:52.299Z,101015.38
2018-12-20T04:45:56.863Z,101022.59
2018-12-20T04:49:01.312Z,101021.07
2018-12-20T04:52:05.905Z,101017.52
2018-12-20T04:55:10.462Z,101024.07
2018-12-20T04:58:14.679Z,101015.95
2018-12-20T05:01:18.970Z,101022.82
2018-12-20T05:04:23.351Z,101021.47
2018-12-20T05:07:27.890Z,101024.52
2018-12-20T05:10:32.411Z,101012.23
2018-12-20T05:13:36.614Z,101012.55
2018-12-20T05:16:40.930Z,101013.05
2018-12-20T05:19:45.555Z,101019.45
2018-12-20T05:22:50.073Z,101025.15
2018-12-20T05:25:54.418Z,101014.07
2018-12-20T05:28:58.762Z,101021.65
2018-12-20T05:32:03.195Z,101021.65
2018-12-20T05:35:07.709Z,101025.32
2018-12-20T05:38:12.311Z,101021.78
2018-12-20T05:41:16.647Z,101021.28
2018-12-20T05:44:20.910Z,101014.88
2018-12-20T05:47:25.284Z,101013.22
2018-12-20T05:50:29.577Z,101006.84
2018-12-20T05:53:34.039Z,101014.75
2018-12-20T05:56:38.511Z,101013.27
2018-12-20T05:59:42.789Z,101014.61
2018-12-20T06:02:46.986Z,101009.91
2018-12-20T06:05:51.387Z,101010.94
2018-12-20T06:08:55.644Z,101006.05
2018-12-20T06:12:00.164Z,101011.12
2018-12-20T06:15:06.264Z,101010.94
2018-12-20T06:18:10.445Z,101010.09
2018-12-20T06:21:14.879Z,101010.44
2018-12-20T06:24:19.183Z,101013.63
2018-12-20T06:27:23.451Z,101007.08
2018-12-20T06:30:27.722Z,101019.19
2018-12-20T06:33:32.020Z,101021.38
2018-12-20T06:36:36.249Z,101018.16
2018-12-20T06:39:40.460Z,101019.50
2018-12-20T06:42:44.837Z,101019.33
2018-12-20T06:45:49.172Z,101016.14
2018-12-20T06:48:53.384Z,101014.61
2018-12-20T06:51:57.791Z,101010.26
2018-12-20T06:55:02.017Z,101011.61
2018-12-20T06:58:06.356Z,101017.98
2018-12-20T07:01:10.694Z,101017.48
2018-12-20T07:04:14.959Z,101011.92
2018-12-20T07:07:19.168Z,101018.83
2018-12-20T07:10:23.367Z,101021.02
2018-12-20T07:13:27.555Z,101026.22
2018-12-20T07:16:31.761Z,101033.27
2018-12-20T07:19:35.988Z,101035.28
2018-12-20T07:22:40.232Z,101029.53
2018-12-20T07:25:44.513Z,101027.70
2018-12-20T07:28:48.708Z,101035.59
2018-12-20T07:31:52.923Z,101026.48
2018-12-20T07:34:57.192Z,101029.50
2018-12-20T07:38:01.526Z,101024.46
2018-12-20T07:41:05.839Z,101021.77
2018-12-20T07:44:10.068Z,101023.94
2018-12-20T07:47:14.251Z,101015.55
2018-12-20T07:50:18.518Z,101020.08
2018-12-20T07:53:22.746Z,101021.11
2018-12-20T07:56:27.031Z,101022.27
2018-12-20T07:59:31.232Z,101024.64
2018-12-20T08:02:35.428Z,101025.98
2018-12-20T08:05:39.655Z,101024.47
2018-12-20T08:08:43.918Z,101025.50
2018-12-20T08:11:48.203Z,101016.08
2018-12-20T08:14:52.512Z,101018.28
2018-12-20T08:17:56.719Z,101029.18
2018-12-20T08:21:00.920Z,101033.22
2018-12-20T08:24:05.286Z,101037.56
2018-12-20T08:27:09.563Z,101033.17
2018-12-20T08:30:13.798Z,101035.55
2018-12-20T08:33:17.991Z,101037.20
2018-12-20T08:36:22.304Z,101036.21
2018-12-20T08:39:26.522Z,101036.21
2018-12-20T08:42:30.799Z,101037.88
2018-12-20T08:45:35.101Z,101039.72
2018-12-20T08:48:39.351Z,101049.31
2018-12-20T08:51:49.074Z,101039.04
2018-12-20T08:54:49.923Z,101043.92
2018-12-20T08:57:54.138Z,101043.74
2018-12-20T09:00:58.371Z,101048.77
2018-12-20T09:04:02.657Z,101053.66
2018-12-20T09:07:06.934Z,101046.61
2018-12-20T09:10:11.363Z,101042.58
2018-12-20T09:13:15.719Z,101045.41
2018-12-20T09:16:19.924Z,101048.77
2018-12-20T09:19:24.322Z,101044.86
2018-12-20T09:22:28.744Z,101048.41
2018-12-20T09:25:32.999Z,101046.38
2018-12-20T09:28:37.224Z,101054.27
2018-12-20T09:31:41.419Z,101052.56
2018-12-20T09:34:45.680Z,101050.19
2018-12-20T09:37:49.898Z,101048.48
2018-12-20T09:40:54.120Z,101042.73
2018-12-20T09:43:58.335Z,101048.73
2018-12-20T09:47:11.837Z,101052.77
2018-12-20T09:50:14.310Z,101045.48
2018-12-20T09:53:18.523Z,101040.77
2018-12-20T09:56:22.852Z,101041.74
2018-12-20T09:59:27.039Z,101046.23
2018-12-20T10:02:31.273Z,101040.83
2018-12-20T10:05:35.572Z,101037.08
2018-12-20T10:08:39.762Z,101026.94
2018-12-20T10:11:44.016Z,101023.25
2018-12-20T10:14:48.267Z,101023.37
2018-12-20T10:17:52.494Z,101018.84
2018-12-20T10:20:56.699Z,101023.86
2018-12-20T10:24:00.931Z,101027.52
2018-12-20T10:27:05.439Z,101026.13
2018-12-20T10:30:10.753Z,101019.55
2018-12-20T10:33:15.096Z,101013.26
2018-12-20T10:36:19.963Z,101012.39
2018-12-20T10:39:24.415Z,101003.80
2018-12-20T10:42:28.683Z,101001.11
2018-12-20T10:45:32.900Z,101000.26
2018-12-20T10:48:37.101Z,101003.61
2018-12-20T10:51:41.307Z,100999.70
2018-12-20T10:54:45.569Z,101000.05
2018-12-20T10:57:49.805Z,100996.63
2018-12-20T11:00:59.272Z,100991.53
2018-12-20T11:04:08.663Z,100989.11
2018-12-20T11:07:18.229Z,100987.89
2018-12-20T11:10:26.523Z,100977.08
2018-12-20T11:13:30.826Z,100978.17
2018-12-20T11:16:35.124Z,100969.70
2018-12-20T11:19:39.368Z,100968.17
2018-12-20T11:22:43.818Z,100968.52
2018-12-20T11:25:48.047Z,100966.44
2018-12-20T11:28:52.362Z,100967.91
2018-12-20T11:31:56.553Z,100963.83
2018-12-20T11:35:00.763Z,100956.52
2018-12-20T11:38:05.128Z,100955.29
2018-12-20T11:41:09.420Z,100954.59
2018-12-20T11:44:13.710Z,100950.86
2018-12-20T11:47:23.261Z,100947.97
2018-12-20T11:50:27.569Z,100946.39
2018-12-20T11:53:31.801Z,100942.27
2018-12-20T11:56:36.171Z,100938.34
2018-12-20T11:59:40.480Z,100934.95
2018-12-20T12:02:44.755Z,100932.06
2018-12-20T12:05:49.123Z,100924.92
2018-12-20T12:08:53.384Z,100924.11
2018-12-20T12:11:57.598Z,100926.35
2018-12-20T12:15:01.879Z,100926.02
2018-12-20T12:18:06.062Z,100921.34
2018-12-20T12:21:10.430Z,100927.44
2018-12-20T12:24:14.640Z,100919.53
2018-12-20T12:27:19.004Z,100920.88
2018-12-20T12:30:23.267Z,100923.58
2018-12-20T12:33:27.523Z,100922.42
2018-12-20T12:36:31.816Z,100926.47
2018-12-20T12:39:36.064Z,100926.16
2018-12-20T12:42:40.275Z,100921.27
2018-12-20T12:45:44.494Z,100927.31
2018-12-20T12:48:48.682Z,100926.47
2018-12-20T12:51:53.564Z,100925.63
2018-12-20T12:54:57.987Z,100918.87
2018-12-20T12:58:04.953Z,100925.31
2018-12-20T13:01:08.716Z,100920.42
2018-12-20T13:04:12.915Z,100924.16
2018-12-20T13:07:17.111Z,100925.20
2018-12-20T13:10:21.406Z,100919.45
2018-12-20T13:13:25.619Z,100914.25
2018-12-20T13:16:29.900Z,100918.80
2018-12-20T13:19:34.135Z,100916.45
2018-12-20T13:22:38.325Z,100911.25
2018-12-20T13:25:42.736Z,100903.16
2018-12-20T13:28:46.938Z,100916.45
2018-12-20T13:31:51.151Z,100916.45
2018-12-20T13:34:55.438Z,100912.21
2018-12-20T13:37:59.646Z,100908.48
2018-12-20T13:41:04.010Z,100901.42
2018-12-20T13:44:08.251Z,100905.78
2018-12-20T13:47:12.991Z,100910.67
2018-12-20T13:50:17.315Z,100912.14
2018-12-20T13:53:21.523Z,100905.59
2018-12-20T13:56:25.731Z,100903.23
2018-12-20T13:59:30.011Z,100906.55
2018-12-20T14:02:34.215Z,100902.70
2018-12-20T14:05:38.430Z,100904.58
2018-12-20T14:08:42.715Z,100903.23
2018-12-20T14:11:47.045Z,100902.39
2018-12-20T14:14:51.265Z,100909.25
2018-12-20T14:17:55.484Z,100916.33
2018-12-20T14:20:59.817Z,100919.34
2018-12-20T14:24:04.169Z,100911.25
2018-12-20T14:27:08.464Z,100910.94
2018-12-20T14:30:12.803Z,100906.36
2018-12-20T14:33:17.126Z,100914.45
2018-12-20T14:36:21.323Z,100920.38
2018-12-20T14:39:25.527Z,100912.09
2018-12-20T14:42:29.788Z,100914.45
2018-12-20T14:45:33.995Z,100907.08
2018-12-20T14:48:39.490Z,100909.78
2018-12-20T14:51:44.213Z,100911.13
2018-12-20T14:54:48.442Z,100912.48
2018-12-20T14:57:52.628Z,100914.02
2018-12-20T15:00:56.908Z,100916.38
2018-12-20T15:04:01.190Z,100920.42
2018-12-20T15:07:05.494Z,100920.61
2018-12-20T15:10:11.190Z,100923.50
2018-12-20T15:13:15.408Z,100926.86
2018-12-20T15:16:19.723Z,100926.01
2018-12-20T15:19:23.939Z,100924.16
2018-12-20T15:22:28.198Z,100922.81
2018-12-20T15:25:32.499Z,100923.31
2018-12-20T15:28:36.780Z,100924.85
2018-12-20T15:31:41.055Z,100922.66
2018-12-20T15:34:45.356Z,100923.50
2018-12-20T15:37:49.567Z,100929.75
2018-12-20T15:40:53.784Z,100931.94
2018-12-20T15:43:58.281Z,100926.55
2018-12-20T15:47:02.550Z,100926.55
2018-12-20T15:50:08.917Z,100925.20
2018-12-20T15:53:13.112Z,100927.70
2018-12-20T15:56:17.370Z,100921.15
2018-12-20T15:59:21.570Z,100916.57
2018-12-20T16:02:25.839Z,100910.48
2018-12-20T16:05:30.231Z,100918.77
2018-12-20T16:08:34.608Z,100901.54
2018-12-20T16:11:38.847Z,100904.58
2018-12-20T16:14:43.231Z,100904.89
2018-12-20T16:17:47.472Z,100910.48
2018-12-20T16:20:51.686Z,100901.03
2018-12-20T16:23:55.998Z,100899.38
2018-12-20T16:27:00.419Z,100898.73
2018-12-20T16:30:05.983Z,100907.02
2018-12-20T16:33:10.479Z,100900.77
2018-12-20T16:36:14.706Z,100895.57
2018-12-20T16:39:18.942Z,100898.27
2018-12-20T16:42:23.141Z,100896.27
2018-12-20T16:45:27.383Z,100897.30
2018-12-20T16:48:31.675Z,100903.73
2018-12-20T16:51:46.164Z,100909.75
2018-12-20T16:54:50.490Z,100900.69
2018-12-20T16:57:54.691Z,100912.33
2018-12-20T17:00:59.020Z,100903.20
2018-12-20T17:04:03.270Z,100892.95
2018-12-20T17:07:07.505Z,100898.00
2018-12-20T17:10:11.828Z,100888.91
2018-12-20T17:13:16.182Z,100886.52
2018-12-20T17:16:20.467Z,100888.05
2018-12-20T17:19:24.669Z,100877.34
2018-12-20T17:22:29.068Z,100882.20
2018-12-20T17:25:33.415Z,100889.67
2018-12-20T17:28:37.655Z,100895.06
2018-12-20T17:31:41.964Z,100894.41
2018-12-20T17:34:46.287Z,100891.06
2018-12-20T17:37:50.511Z,100893.76
2018-12-20T17:40:54.751Z,100890.75
2018-12-20T17:43:58.938Z,100894.06
2018-12-20T17:47:03.363Z,100889.86
2018-12-20T17:50:08.719Z,100893.91
2018-12-20T17:53:12.931Z,100895.88
2018-12-20T17:56:17.172Z,100890.30
2018-12-20T17:59:21.413Z,100886.91
2018-12-20T18:02:25.768Z,100883.55
2018-12-20T18:05:30.080Z,100886.25
2018-12-20T18:08:34.359Z,100884.90
2018-12-20T18:11:38.598Z,100879.20
2018-12-20T18:14:42.838Z,100881.58
2018-12-20T18:17:47.075Z,100879.39
2018-12-20T18:20:51.374Z,100877.53
2018-12-20T18:23:55.639Z,100875.34
2018-12-20T18:26:59.880Z,100873.49
2018-12-20T18:30:04.526Z,100871.95
2018-12-20T18:33:08.769Z,100869.56
2018-12-20T18:36:13.000Z,100869.38
2018-12-20T18:39:17.485Z,100865.64
2018-12-20T18:42:21.844Z,100870.02
2018-12-20T18:45:26.185Z,100865.64
2018-12-20T18:48:30.476Z,100871.69
2018-12-20T18:51:43.203Z,100872.34
2018-12-20T18:54:47.487Z,100872.64
2018-12-20T18:57:51.736Z,100873.61
2018-12-20T19:00:55.970Z,100869.37
2018-12-20T19:04:00.397Z,100868.78
2018-12-20T19:07:04.632Z,100867.78
2018-12-20T19:10:09.635Z,100871.29
2018-12-20T19:13:13.884Z,100865.00
2018-12-20T19:16:18.095Z,100862.61
2018-12-20T19:19:22.411Z,100861.41
2018-12-20T19:22:26.626Z,100861.41
2018-12-20T19:25:31.719Z,100857.81
2018-12-20T19:28:35.925Z,100860.63
2018-12-20T19:31:40.162Z,100858.13
2018-12-20T19:34:44.415Z,100857.28
2018-12-20T19:37:48.723Z,100848.03
2018-12-20T19:40:52.975Z,100849.92
2018-12-20T19:43:57.243Z,100850.42
2018-12-20T19:47:01.518Z,100845.61
2018-12-20T19:50:08.283Z,100845.08
2018-12-20T19:53:12.540Z,100842.07
2018-12-20T19:56:16.775Z,100841.17
2018-12-20T19:59:21.030Z,100838.59
2018-12-20T20:02:25.315Z,100834.55
2018-12-20T20:05:29.671Z,100833.54
2018-12-20T20:08:33.935Z,100840.20
2018-12-20T20:11:38.247Z,100833.77
2018-12-20T20:14:42.549Z,100834.30
2018-12-20T20:17:46.796Z,100829.91
2018-12-20T20:20:51.048Z,100825.86
2018-12-20T20:23:55.274Z,100817.97
2018-12-20T20:26:59.532Z,100823.50
2018-12-20T20:30:04.348Z,100818.11
2018-12-20T20:33:08.694Z,100814.06
2018-12-20T20:36:12.915Z,100808.98
2018-12-20T20:39:17.212Z,100807.63
2018-12-20T20:42:21.427Z,100815.22
2018-12-20T20:45:25.731Z,100810.97
2018-12-20T20:48:30.608Z,100813.02
2018-12-20T20:51:34.991Z,100802.23
2018-12-20T20:54:39.234Z,100808.12
2018-12-20T20:57:43.453Z,100803.08
2018-12-20T21:00:47.759Z,100796.53
2018-12-20T21:03:52.109Z,100791.44
2018-12-20T21:06:56.367Z,100793.29
2018-12-20T21:10:00.592Z,100791.63
2018-12-20T21:13:05.023Z,100786.94
2018-12-20T21:16:09.247Z,100787.78
2018-12-20T21:19:13.568Z,100792.33
2018-12-20T21:22:17.934Z,100786.44
2018-12-20T21:25:22.135Z,100781.88
2018-12-20T21:28:26.346Z,100783.55
2018-12-20T21:31:30.582Z,100786.44
2018-12-20T21:34:34.887Z,100784.24
2018-12-20T21:37:39.106Z,100779.38
2018-12-20T21:40:43.436Z,100782.89
2018-12-20T21:43:47.683Z,100778.45
2018-12-20T21:46:51.871Z,100774.02
2018-12-20T21:49:56.113Z,100781.41
2018-12-20T21:53:00.339Z,100785.25
2018-12-20T21:56:04.687Z,100775.16
2018-12-20T21:59:08.907Z,100767.41
2018-12-20T22:02:13.203Z,100771.77
2018-12-20T22:05:17.631Z,100766.36
2018-12-20T22:08:21.851Z,100770.41
2018-12-20T22:11:26.099Z,100762.12
2018-12-20T22:14:30.389Z,100769.70
2018-12-20T22:17:34.635Z,100759.11
2018-12-20T22:20:47.075Z,100764.51
2018-12-20T22:23:45.188Z,100762.12
2018-12-20T22:26:49.432Z,100764.31
2018-12-20T22:29:53.706Z,100760.38
2018-12-20T22:32:57.917Z,100757.67
2018-12-20T22:36:02.161Z,100761.52
2018-12-20T22:39:08.248Z,100764.02
2018-12-20T22:42:12.456Z,100757.61
2018-12-20T22:45:16.800Z,100762.27
2018-12-20T22:48:21.098Z,100755.87
2018-12-20T22:51:25.322Z,100759.58
2018-12-20T22:54:29.576Z,100758.42
2018-12-20T22:57:33.823Z,100756.88
2018-12-20T23:00:38.248Z,100754.18
2018-12-20T23:03:42.577Z,100744.93
2018-12-20T23:06:46.927Z,100750.67
2018-12-20T23:09:51.167Z,100748.58
2018-12-20T23:12:55.464Z,100745.88
2018-12-20T23:15:59.772Z,100741.53
2018-12-20T23:19:04.178Z,100731.23
2018-12-20T23:22:08.478Z,100742.58
2018-12-20T23:25:12.807Z,100730.42
2018-12-20T23:28:17.135Z,100732.19
2018-12-20T23:31:21.431Z,100727.19
2018-12-20T23:34:25.743Z,100722.13
2018-12-20T23:37:29.997Z,100718.28
2018-12-20T23:40:34.343Z,100712.75
2018-12-20T23:43:38.649Z,100717.23
2018-12-20T23:46:42.902Z,100712.88
2018-12-20T23:49:47.964Z,100713.89
2018-12-20T23:52:52.225Z,100711.73
2018-12-20T23:55:56.443Z,100705.69
